Time;durP1;ratioP1;P1;durP2;ratioP2;P2;SDS_P1;SDS_P2;PMS_P1;PMS_P2;Temp;Humidity;BMP_temperature;BMP_pressure;BME280_temperature;BME280_humidity;BME280_pressure;Samples;Min_cycle;Max_cycle;Signal;HPM_P1;HPM_P2
2024/04/08 00:00:26;;;;;;;7.17;2.07;;;15.50;60.80;;;;;;2186025;26;21174;-67
2024/04/08 00:01:26;;;;;;;10.47;2.33;;;15.40;61.50;;;;;;2218423;26;20265;-67
2024/04/08 00:02:27;;;;;;;7.43;2.30;;;15.40;61.90;;;;;;2206618;26;20553;-67
2024/04/08 00:03:28;;;;;;;7.53;2.23;;;15.30;61.10;;;;;;2221337;26;20265;-67
2024/04/08 00:04:28;;;;;;;7.00;2.00;;;15.20;60.30;;;;;;2217602;26;20867;-67
2024/04/08 00:05:29;;;;;;;5.23;1.43;;;15.10;61.20;;;;;;2192494;26;20264;-67
2024/04/08 00:06:30;;;;;;;3.07;1.80;;;15.00;63.60;;;;;;2203976;26;20306;-67
2024/04/08 00:07:30;;;;;;;6.70;1.80;;;14.90;64.00;;;;;;2233437;26;20623;-67
2024/04/08 00:08:31;;;;;;;9.50;2.10;;;14.90;63.30;;;;;;2216329;26;20304;-67
2024/04/08 00:09:31;;;;;;;6.37;1.70;;;15.00;63.90;;;;;;2185977;26;20272;-67
2024/04/08 00:10:35;;;;;;;8.90;1.83;;;14.90;64.00;;;;;;2189900;26;20268;-67
2024/04/08 00:11:36;;;;;;;13.07;1.67;;;14.80;64.50;;;;;;2192720;26;20323;-67
2024/04/08 00:12:45;;;;;;;6.93;1.70;;;14.90;65.20;;;;;;2220741;26;20492;-67
2024/04/08 00:13:45;;;;;;;7.73;1.97;;;14.80;65.40;;;;;;2223410;26;20277;-67
2024/04/08 00:14:46;;;;;;;5.27;1.60;;;14.80;66.00;;;;;;2200639;26;20514;-66
2024/04/08 00:15:57;;;;;;;8.87;2.10;;;14.90;67.10;;;;;;2207516;26;20337;-67
2024/04/08 00:16:57;;;;;;;7.50;1.55;;;14.80;66.80;;;;;;2206440;26;20820;-67
2024/04/08 00:17:58;;;;;;;9.73;1.70;;;14.80;66.20;;;;;;2203759;26;20267;-67
2024/04/08 00:19:00;;;;;;;10.77;2.00;;;14.80;66.10;;;;;;2200449;26;20264;-67
2024/04/08 00:20:03;;;;;;;8.47;1.93;;;14.80;66.20;;;;;;2204822;26;20810;-67
2024/04/08 00:21:05;;;;;;;8.77;1.63;;;14.70;66.90;;;;;;2205098;26;20874;-67
2024/04/08 00:22:06;;;;;;;9.32;2.33;;;14.70;66.90;;;;;;2206585;26;20231;-67
2024/04/08 00:23:06;;;;;;;5.87;2.23;;;14.60;67.90;;;;;;2216420;26;20282;-67
2024/04/08 00:24:07;;;;;;;10.13;2.90;;;14.60;67.20;;;;;;2220114;26;20230;-67
2024/04/08 00:25:09;;;;;;;9.00;1.93;;;14.70;66.60;;;;;;2225128;26;20234;-67
2024/04/08 00:26:09;;;;;;;6.63;1.90;;;14.60;67.70;;;;;;2206770;26;20623;-67
2024/04/08 00:27:10;;;;;;;9.80;2.40;;;14.60;67.00;;;;;;2216032;26;20460;-67
2024/04/08 00:28:11;;;;;;;6.97;2.00;;;14.50;67.30;;;;;;2230145;26;20768;-68
2024/04/08 00:29:12;;;;;;;8.40;1.53;;;14.60;67.10;;;;;;2228461;26;20275;-67
2024/04/08 00:30:12;;;;;;;8.30;2.17;;;14.60;67.10;;;;;;2218032;26;20242;-67
2024/04/08 00:31:13;;;;;;;9.70;1.50;;;14.60;67.50;;;;;;2217805;26;20230;-67
2024/04/08 00:32:14;;;;;;;11.33;2.23;;;14.60;67.60;;;;;;2235035;26;20233;-67
2024/04/08 00:33:15;;;;;;;6.57;1.67;;;14.60;66.00;;;;;;2224520;26;20835;-67
2024/04/08 00:34:15;;;;;;;8.43;2.40;;;14.60;65.10;;;;;;2237150;26;20401;-66
2024/04/08 00:35:16;;;;;;;8.03;2.70;;;14.60;64.50;;;;;;2216555;26;20306;-67
2024/04/08 00:36:16;;;;;;;9.43;2.07;;;14.60;66.80;;;;;;2215706;26;20617;-67
2024/04/08 00:37:17;;;;;;;8.57;1.60;;;14.60;67.40;;;;;;2229940;26;20232;-67
2024/04/08 00:38:18;;;;;;;8.93;2.00;;;14.60;68.00;;;;;;2232024;26;20245;-67
2024/04/08 00:39:18;;;;;;;7.60;2.50;;;14.60;65.70;;;;;;2204101;26;20727;-67
2024/04/08 00:40:19;;;;;;;7.40;1.60;;;14.60;64.00;;;;;;2204152;26;20235;-67
2024/04/08 00:41:20;;;;;;;4.93;1.60;;;14.60;65.30;;;;;;2206502;26;20235;-67
2024/04/08 00:42:20;;;;;;;11.23;1.97;;;14.60;66.70;;;;;;2231840;26;20265;-67
2024/04/08 00:43:21;;;;;;;10.77;2.40;;;14.70;66.10;;;;;;2229285;26;20281;-67
2024/04/08 00:44:22;;;;;;;5.57;1.50;;;14.60;63.00;;;;;;2214842;26;20321;-67
2024/04/08 00:45:22;;;;;;;10.60;1.87;;;14.60;66.80;;;;;;2207803;26;20714;-67
2024/04/08 00:46:24;;;;;;;10.27;2.07;;;14.60;67.10;;;;;;2228897;26;20433;-67
2024/04/08 00:47:24;;;;;;;9.17;2.47;;;14.60;68.40;;;;;;2232864;26;20310;-67
2024/04/08 00:48:25;;;;;;;8.43;2.03;;;14.60;68.10;;;;;;2233542;26;20551;-67
2024/04/08 00:49:28;;;;;;;8.60;2.13;;;14.60;68.00;;;;;;2234468;26;20312;-67
2024/04/08 00:50:29;;;;;;;6.10;2.13;;;14.60;67.80;;;;;;2201440;26;20310;-67
2024/04/08 00:51:30;;;;;;;9.17;2.50;;;14.60;67.60;;;;;;2234305;26;20577;-67
2024/04/08 00:52:31;;;;;;;6.73;1.87;;;14.60;66.80;;;;;;2234391;26;20269;-67
2024/04/08 00:53:31;;;;;;;10.80;2.25;;;14.60;65.30;;;;;;2231464;26;21088;-67
2024/04/08 00:54:33;;;;;;;8.70;2.10;;;14.60;65.60;;;;;;2215218;26;20308;-67
2024/04/08 00:55:34;;;;;;;7.77;2.47;;;14.60;66.00;;;;;;2215582;26;20373;-67
2024/04/08 00:56:37;;;;;;;10.60;1.90;;;14.50;65.60;;;;;;2207022;26;20497;-67
2024/04/08 00:57:39;;;;;;;6.63;2.77;;;14.50;65.80;;;;;;2205325;26;21147;-67
2024/04/08 00:58:39;;;;;;;4.57;1.73;;;14.50;66.00;;;;;;2216484;26;20503;-67
2024/04/08 00:59:40;;;;;;;6.37;1.87;;;14.50;66.60;;;;;;2200582;26;20912;-67
2024/04/08 01:00:41;;;;;;;8.20;1.93;;;14.50;67.20;;;;;;2206484;26;20270;-67
2024/04/08 01:01:42;;;;;;;5.70;1.70;;;14.40;67.40;;;;;;2204166;26;20301;-67
2024/04/08 01:02:42;;;;;;;13.77;2.37;;;14.40;68.90;;;;;;2212971;26;20312;-67
2024/04/08 01:03:45;;;;;;;8.33;2.20;;;14.40;68.10;;;;;;2222527;26;20269;-67
2024/04/08 01:04:47;;;;;;;6.80;2.13;;;14.40;70.80;;;;;;2177898;27;20312;-67
2024/04/08 01:05:50;;;;;;;5.65;1.90;;;14.40;70.30;;;;;;2178641;26;20343;-67
2024/04/08 01:06:51;;;;;;;5.50;2.22;;;14.30;68.90;;;;;;2193019;26;20272;-67
2024/04/08 01:07:52;;;;;;;9.77;2.40;;;14.30;68.60;;;;;;2192219;26;20306;-67
2024/04/08 01:08:53;;;;;;;9.48;2.03;;;14.20;68.40;;;;;;2215823;26;20274;-66
2024/04/08 01:09:53;;;;;;;8.20;2.13;;;14.20;68.10;;;;;;2238833;26;20268;-66
2024/04/08 01:10:55;;;;;;;5.97;2.17;;;14.10;68.40;;;;;;2221546;26;20270;-67
2024/04/08 01:11:59;;;;;;;11.80;2.27;;;14.10;69.50;;;;;;2188153;26;20716;-67
2024/04/08 01:12:59;;;;;;;5.35;2.10;;;14.10;70.00;;;;;;2187226;26;20507;-67
2024/04/08 01:14:00;;;;;;;9.17;2.57;;;14.10;70.00;;;;;;2223622;26;20277;-67
2024/04/08 01:15:02;;;;;;;6.00;1.93;;;14.20;71.60;;;;;;2217317;26;20638;-66
2024/04/08 01:16:04;;;;;;;10.43;2.57;;;14.10;72.20;;;;;;2202491;26;20373;-66
2024/04/08 01:17:05;;;;;;;7.97;2.80;;;14.10;72.00;;;;;;2202221;26;20585;-67
2024/04/08 01:18:06;;;;;;;14.30;2.88;;;14.10;73.00;;;;;;2229644;26;21034;-67
2024/04/08 01:19:07;;;;;;;5.57;2.00;;;14.00;73.50;;;;;;2220184;26;20229;-67
2024/04/08 01:20:07;;;;;;;8.93;2.00;;;14.00;73.30;;;;;;2206096;26;20231;-67
2024/04/08 01:21:08;;;;;;;12.57;2.80;;;14.00;73.40;;;;;;2204256;26;20341;-67
2024/04/08 01:22:10;;;;;;;10.07;2.40;;;13.90;72.70;;;;;;2229488;26;20713;-67
2024/04/08 01:23:14;;;;;;;8.88;2.28;;;13.90;73.80;;;;;;2235136;26;20233;-67
2024/04/08 01:24:15;;;;;;;10.73;2.67;;;13.90;73.80;;;;;;2217245;26;20242;-67
2024/04/08 01:25:16;;;;;;;9.70;2.00;;;13.90;73.70;;;;;;2216940;26;20230;-67
2024/04/08 01:26:17;;;;;;;11.57;2.93;;;13.90;73.80;;;;;;2202305;26;20227;-67
2024/04/08 01:27:18;;;;;;;7.30;2.00;;;13.90;73.80;;;;;;2202854;26;20621;-67
2024/04/08 01:28:20;;;;;;;8.97;2.30;;;13.80;74.00;;;;;;2234511;26;20280;-67
2024/04/08 01:29:21;;;;;;;8.55;2.17;;;13.80;75.40;;;;;;2229278;26;21586;-67
2024/04/08 01:30:21;;;;;;;8.97;2.70;;;13.80;76.40;;;;;;2227380;26;20300;-67
2024/04/08 01:31:22;;;;;;;9.90;2.80;;;13.70;75.80;;;;;;2220203;26;20675;-67
2024/04/08 01:32:23;;;;;;;6.63;1.73;;;13.70;75.90;;;;;;2205143;26;20271;-67
2024/04/08 01:33:23;;;;;;;8.57;2.10;;;13.70;76.10;;;;;;2234557;26;20303;-66
2024/04/08 01:34:24;;;;;;;10.03;2.70;;;13.60;76.10;;;;;;2229804;26;20277;-67
2024/04/08 01:35:25;;;;;;;10.43;2.90;;;13.60;76.30;;;;;;2200998;26;20797;-67
2024/04/08 01:36:26;;;;;;;8.47;2.30;;;13.50;76.50;;;;;;2188136;27;20311;-67
2024/04/08 01:37:26;;;;;;;6.75;2.20;;;13.50;76.70;;;;;;2218768;26;20378;-68
2024/04/08 01:38:27;;;;;;;11.83;2.10;;;13.50;76.30;;;;;;2220810;26;20382;-68
2024/04/08 01:39:28;;;;;;;12.37;2.17;;;13.50;77.50;;;;;;2191497;26;20303;-68
2024/04/08 01:40:29;;;;;;;7.67;2.23;;;13.50;77.10;;;;;;2202522;26;20586;-68
2024/04/08 01:41:29;;;;;;;10.27;2.10;;;13.50;76.20;;;;;;2203844;26;20286;-68
2024/04/08 01:42:30;;;;;;;6.80;2.33;;;13.50;76.50;;;;;;2219711;26;20324;-68
2024/04/08 01:43:31;;;;;;;8.60;2.77;;;13.40;76.90;;;;;;2220639;26;20312;-68
2024/04/08 01:44:31;;;;;;;7.57;1.83;;;13.30;77.00;;;;;;2204110;26;20304;-68
2024/04/08 01:45:32;;;;;;;7.50;2.40;;;13.20;77.10;;;;;;2234330;26;20269;-68
2024/04/08 01:46:33;;;;;;;6.73;2.10;;;13.20;76.60;;;;;;2231985;26;20269;-68
2024/04/08 01:47:33;;;;;;;12.57;2.13;;;13.20;75.80;;;;;;2202160;26;20314;-68
2024/04/08 01:48:34;;;;;;;9.77;2.00;;;13.20;76.00;;;;;;2199982;26;20384;-68
2024/04/08 01:49:35;;;;;;;11.87;1.93;;;13.20;76.00;;;;;;2228803;26;20315;-68
2024/04/08 01:50:35;;;;;;;12.37;2.40;;;13.10;77.40;;;;;;2219989;26;20269;-68
2024/04/08 01:51:36;;;;;;;6.93;2.40;;;13.10;77.80;;;;;;2219559;26;20277;-68
2024/04/08 01:52:37;;;;;;;7.30;2.20;;;13.10;77.60;;;;;;2220110;26;20278;-68
2024/04/08 01:53:37;;;;;;;10.17;2.40;;;13.00;77.60;;;;;;2201848;26;20319;-68
2024/04/08 01:54:38;;;;;;;7.20;2.60;;;12.90;79.10;;;;;;2234305;26;20311;-68
2024/04/08 01:55:39;;;;;;;6.63;2.13;;;13.00;79.60;;;;;;2233151;26;20308;-68
2024/04/08 01:56:39;;;;;;;7.67;1.90;;;13.00;79.70;;;;;;2231470;26;20745;-68
2024/04/08 01:57:40;;;;;;;13.17;2.53;;;13.00;81.40;;;;;;2230535;26;20266;-68
2024/04/08 01:58:41;;;;;;;10.87;2.30;;;12.80;82.80;;;;;;2201183;26;20318;-68
2024/04/08 01:59:41;;;;;;;4.87;2.10;;;12.70;84.60;;;;;;2210561;26;20273;-68
2024/04/08 02:00:42;;;;;;;10.50;2.07;;;12.70;85.20;;;;;;2205103;26;20267;-67
2024/04/08 02:01:43;;;;;;;8.93;2.10;;;12.60;85.40;;;;;;2202413;26;20712;-68
2024/04/08 02:02:44;;;;;;;7.37;2.67;;;12.60;86.20;;;;;;2206701;26;20309;-69
2024/04/08 02:03:44;;;;;;;11.13;1.97;;;12.60;86.00;;;;;;2207180;26;20326;-68
2024/04/08 02:04:45;;;;;;;11.83;2.67;;;12.60;85.30;;;;;;2203341;26;20279;-68
2024/04/08 02:05:46;;;;;;;10.40;2.73;;;12.60;81.30;;;;;;2194157;26;20264;-68
2024/04/08 02:06:46;;;;;;;12.00;2.60;;;12.60;76.10;;;;;;2192991;26;20268;-68
2024/04/08 02:07:50;;;;;;;11.73;2.83;;;12.60;75.00;;;;;;2193967;26;20306;-69
2024/04/08 02:08:50;;;;;;;15.40;2.97;;;12.60;72.00;;;;;;2207198;26;20259;-68
2024/04/08 02:09:51;;;;;;;13.20;3.23;;;12.70;71.80;;;;;;2203798;26;20619;-68
2024/04/08 02:10:52;;;;;;;12.50;2.80;;;12.80;72.10;;;;;;2206908;26;20360;-68
2024/04/08 02:11:53;;;;;;;22.77;2.85;;;12.90;69.70;;;;;;2206786;26;20309;-68
2024/04/08 02:12:54;;;;;;;12.57;2.70;;;13.00;68.50;;;;;;2206714;26;20267;-68
2024/04/08 02:13:54;;;;;;;11.77;2.40;;;13.00;70.10;;;;;;2205198;26;20490;-68
2024/04/08 02:14:55;;;;;;;8.57;2.00;;;13.00;72.70;;;;;;2203955;26;20731;-68
2024/04/08 02:15:56;;;;;;;9.23;1.73;;;13.00;75.80;;;;;;2202022;26;20272;-68
2024/04/08 02:16:58;;;;;;;10.03;2.27;;;13.00;76.10;;;;;;2201718;26;20350;-68
2024/04/08 02:17:59;;;;;;;11.27;2.22;;;13.00;76.10;;;;;;2193237;26;20360;-68
2024/04/08 02:18:59;;;;;;;10.53;2.20;;;13.00;76.70;;;;;;2194096;26;20358;-68
2024/04/08 02:20:00;;;;;;;12.57;2.37;;;13.00;76.20;;;;;;2201943;26;20268;-68
2024/04/08 02:21:02;;;;;;;13.53;3.03;;;13.00;76.50;;;;;;2200135;26;20274;-68
2024/04/08 02:22:03;;;;;;;11.50;2.80;;;12.90;77.20;;;;;;2206549;26;20274;-68
2024/04/08 02:23:04;;;;;;;10.50;2.70;;;12.90;75.90;;;;;;2217594;26;20666;-67
2024/04/08 02:24:05;;;;;;;10.95;2.88;;;12.90;76.00;;;;;;2217216;26;20277;-68
2024/04/08 02:25:07;;;;;;;14.30;2.60;;;12.90;75.60;;;;;;2229722;26;20297;-68
2024/04/08 02:26:08;;;;;;;8.98;2.47;;;12.90;76.00;;;;;;2228702;26;20651;-68
2024/04/08 02:27:09;;;;;;;14.03;2.53;;;12.90;76.40;;;;;;2204764;26;21855;-68
2024/04/08 02:28:09;;;;;;;7.87;2.10;;;12.90;75.10;;;;;;2221569;26;20273;-68
2024/04/08 02:29:10;;;;;;;7.40;2.73;;;12.90;77.20;;;;;;2218395;26;20277;-68
2024/04/08 02:30:11;;;;;;;7.70;1.87;;;12.80;79.40;;;;;;2206759;26;20235;-68
2024/04/08 02:31:12;;;;;;;6.90;2.20;;;12.80;79.60;;;;;;2234447;26;20311;-68
2024/04/08 02:32:13;;;;;;;9.40;3.47;;;12.80;80.20;;;;;;2228794;26;20672;-68
2024/04/08 02:33:13;;;;;;;12.90;2.70;;;12.80;81.00;;;;;;2229080;26;20237;-68
2024/04/08 02:34:14;;;;;;;9.27;2.87;;;12.80;81.10;;;;;;2221286;26;20284;-68
2024/04/08 02:35:16;;;;;;;10.57;3.07;;;12.70;81.10;;;;;;2221580;26;21031;-68
2024/04/08 02:36:17;;;;;;;14.07;2.55;;;12.70;81.20;;;;;;2232874;26;20717;-68
2024/04/08 02:37:18;;;;;;;7.60;2.30;;;12.60;81.90;;;;;;2203865;26;20235;-68
2024/04/08 02:38:18;;;;;;;10.93;2.70;;;12.60;82.30;;;;;;2215474;26;20752;-68
2024/04/08 02:39:19;;;;;;;13.87;3.00;;;12.60;82.00;;;;;;2205993;26;20235;-68
2024/04/08 02:40:20;;;;;;;8.70;2.27;;;12.50;79.90;;;;;;2192629;26;20259;-68
2024/04/08 02:41:21;;;;;;;8.37;2.03;;;12.50;80.60;;;;;;2203719;26;21742;-68
2024/04/08 02:42:21;;;;;;;15.20;2.90;;;12.40;80.10;;;;;;2202199;26;20301;-68
2024/04/08 02:43:25;;;;;;;17.20;3.27;;;12.40;74.00;;;;;;2207476;26;20274;-68
2024/04/08 02:44:26;;;;;;;16.30;3.88;;;12.40;71.60;;;;;;2205232;26;20365;-68
2024/04/08 02:45:26;;;;;;;14.17;3.30;;;12.50;69.80;;;;;;2205319;26;20386;-68
2024/04/08 02:46:27;;;;;;;18.43;2.80;;;12.50;70.40;;;;;;2215913;26;20312;-68
2024/04/08 02:47:28;;;;;;;22.00;3.23;;;12.60;69.10;;;;;;2202858;26;20353;-68
2024/04/08 02:48:28;;;;;;;11.00;3.23;;;12.50;68.90;;;;;;2192950;27;21392;-68
2024/04/08 02:49:29;;;;;;;17.13;3.10;;;12.60;69.40;;;;;;2206605;26;20263;-68
2024/04/08 02:50:30;;;;;;;15.73;2.57;;;12.70;70.90;;;;;;2230791;26;20265;-68
2024/04/08 02:51:31;;;;;;;11.50;2.93;;;12.70;71.30;;;;;;2215160;26;20270;-68
2024/04/08 02:52:31;;;;;;;15.90;3.13;;;12.70;72.60;;;;;;2199175;26;20305;-68
2024/04/08 02:53:33;;;;;;;13.00;2.53;;;12.80;72.70;;;;;;2233190;26;20748;-68
2024/04/08 02:54:34;;;;;;;14.60;3.17;;;12.70;71.50;;;;;;2230639;26;20271;-68
2024/04/08 02:55:35;;;;;;;17.43;2.60;;;12.80;71.50;;;;;;2215604;26;20270;-68
2024/04/08 02:56:35;;;;;;;11.87;3.63;;;12.80;69.40;;;;;;2214398;26;20263;-68
2024/04/08 02:57:36;;;;;;;24.93;3.60;;;12.80;65.80;;;;;;2234647;26;20264;-67
2024/04/08 02:58:37;;;;;;;14.27;2.63;;;12.80;66.80;;;;;;2232737;26;20277;-68
2024/04/08 02:59:37;;;;;;;17.90;4.30;;;12.80;65.50;;;;;;2201865;26;20608;-68
2024/04/08 03:00:38;;;;;;;13.13;2.80;;;12.90;65.40;;;;;;2200575;26;20272;-68
2024/04/08 03:01:39;;;;;;;14.10;3.10;;;13.00;63.80;;;;;;2205522;26;20325;-68
2024/04/08 03:02:40;;;;;;;14.07;2.90;;;13.10;62.90;;;;;;2190742;27;20318;-68
2024/04/08 03:03:41;;;;;;;16.20;3.30;;;13.20;62.30;;;;;;2189149;26;20302;-68
2024/04/08 03:04:42;;;;;;;14.18;2.95;;;13.20;61.60;;;;;;2192206;26;20346;-68
2024/04/08 03:05:43;;;;;;;14.57;2.83;;;13.30;61.10;;;;;;2214301;26;20278;-68
2024/04/08 03:06:43;;;;;;;19.40;2.73;;;13.40;60.20;;;;;;2234039;26;20269;-69
2024/04/08 03:07:44;;;;;;;11.97;2.37;;;13.50;58.60;;;;;;2232145;26;20861;-68
2024/04/08 03:08:45;;;;;;;13.30;3.17;;;13.60;57.40;;;;;;2226496;26;20324;-68
2024/04/08 03:09:52;;;;;;;11.77;2.60;;;13.70;57.70;;;;;;2202289;26;20351;-68
2024/04/08 03:10:58;;;;;;;11.80;2.45;;;13.90;58.40;;;;;;2201203;26;20612;-68
2024/04/08 03:11:58;;;;;;;11.30;2.67;;;14.00;56.50;;;;;;2193744;26;20272;-68
2024/04/08 03:12:59;;;;;;;13.37;2.30;;;14.00;56.40;;;;;;2193006;26;20784;-68
2024/04/08 03:14:00;;;;;;;9.67;2.27;;;14.10;55.20;;;;;;2206953;26;20386;-68
2024/04/08 03:15:00;;;;;;;11.07;2.30;;;14.20;54.50;;;;;;2204292;26;20275;-68
2024/04/08 03:16:01;;;;;;;8.00;1.83;;;14.30;53.60;;;;;;2205188;26;21048;-67
2024/04/08 03:17:02;;;;;;;9.93;1.90;;;14.60;51.70;;;;;;2205111;26;20591;-67
2024/04/08 03:18:06;;;;;;;14.83;2.17;;;14.60;51.10;;;;;;2202953;26;20283;-67
2024/04/08 03:19:07;;;;;;;13.17;2.20;;;14.70;50.20;;;;;;2201929;26;20454;-68
2024/04/08 03:20:08;;;;;;;11.90;2.23;;;14.80;49.70;;;;;;2201954;26;20513;-68
2024/04/08 03:21:09;;;;;;;10.67;2.17;;;14.90;50.20;;;;;;2233323;26;20240;-67
2024/04/08 03:22:09;;;;;;;6.17;2.03;;;15.10;48.30;;;;;;2230362;26;20448;-68
2024/04/08 03:23:10;;;;;;;6.33;1.60;;;15.20;48.20;;;;;;2214533;26;20230;-68
2024/04/08 03:24:11;;;;;;;12.53;1.77;;;15.30;46.20;;;;;;2206201;26;20254;-68
2024/04/08 03:25:11;;;;;;;7.53;1.87;;;15.40;45.80;;;;;;2206721;26;21087;-68
2024/04/08 03:26:14;;;;;;;12.53;2.70;;;15.50;46.40;;;;;;2232908;26;20276;-68
2024/04/08 03:27:14;;;;;;;5.60;2.10;;;15.60;45.60;;;;;;2216694;26;20288;-68
2024/04/08 03:28:15;;;;;;;17.63;2.53;;;15.60;46.10;;;;;;2214086;26;20452;-68
2024/04/08 03:29:16;;;;;;;8.37;2.33;;;15.60;45.80;;;;;;2215142;26;20584;-68
2024/04/08 03:30:17;;;;;;;8.70;2.53;;;15.60;45.20;;;;;;2217983;26;20245;-68
2024/04/08 03:31:17;;;;;;;8.40;1.80;;;15.70;45.00;;;;;;2217759;26;20277;-68
2024/04/08 03:32:18;;;;;;;7.47;1.87;;;15.70;43.90;;;;;;2193552;26;20505;-68
2024/04/08 03:33:24;;;;;;;7.10;1.40;;;15.70;42.20;;;;;;2215468;26;20234;-68
2024/04/08 03:34:25;;;;;;;7.13;1.53;;;15.70;41.50;;;;;;2217717;26;20332;-68
2024/04/08 03:35:28;;;;;;;4.33;1.60;;;15.70;42.10;;;;;;2217302;26;21088;-68
2024/04/08 03:36:28;;;;;;;9.57;1.77;;;15.80;40.20;;;;;;2215319;26;20266;-68
2024/04/08 03:37:29;;;;;;;7.30;2.03;;;15.80;40.50;;;;;;2184662;26;20956;-69
2024/04/08 03:38:30;;;;;;;6.03;1.60;;;15.80;40.90;;;;;;2193037;27;20366;-68
2024/04/08 03:39:30;;;;;;;3.33;1.43;;;15.80;39.70;;;;;;2192130;26;20272;-68
2024/04/08 03:40:31;;;;;;;5.27;1.80;;;15.80;39.90;;;;;;2229744;26;20268;-69
2024/04/08 03:41:32;;;;;;;13.77;2.13;;;15.80;39.40;;;;;;2214000;26;20265;-68
2024/04/08 03:42:32;;;;;;;10.57;1.60;;;15.90;39.70;;;;;;2190349;27;20314;-68
2024/04/08 03:43:33;;;;;;;5.40;1.50;;;15.90;39.60;;;;;;2203961;26;20278;-68
2024/04/08 03:44:35;;;;;;;8.37;2.00;;;15.90;39.10;;;;;;2187224;26;20268;-68
2024/04/08 03:45:39;;;;;;;5.73;2.63;;;15.80;39.10;;;;;;2186455;26;20279;-68
2024/04/08 03:46:40;;;;;;;8.67;3.87;;;15.80;39.10;;;;;;2220355;26;20500;-68
2024/04/08 03:47:41;;;;;;;9.93;2.70;;;15.70;39.80;;;;;;2231659;26;20595;-68
2024/04/08 03:48:41;;;;;;;6.87;2.03;;;15.60;38.70;;;;;;2232072;26;20272;-68
2024/04/08 03:49:43;;;;;;;5.17;1.50;;;15.50;39.40;;;;;;2214725;26;20270;-67
2024/04/08 03:50:43;;;;;;;7.17;1.33;;;15.50;39.20;;;;;;2191131;26;20316;-67
2024/04/08 03:51:45;;;;;;;9.17;1.70;;;15.70;39.00;;;;;;2221486;26;20564;-67
2024/04/08 03:52:46;;;;;;;5.67;1.67;;;15.70;38.90;;;;;;2227637;26;21159;-68
2024/04/08 03:53:47;;;;;;;5.17;1.60;;;15.70;39.10;;;;;;2206580;26;20513;-68
2024/04/08 03:54:47;;;;;;;6.97;1.50;;;15.70;38.40;;;;;;2192055;26;20510;-68
2024/04/08 03:55:48;;;;;;;9.60;1.93;;;15.80;38.80;;;;;;2207091;26;20376;-68
2024/04/08 03:56:49;;;;;;;8.67;2.00;;;15.80;38.50;;;;;;2237687;26;20323;-68
2024/04/08 03:57:50;;;;;;;6.57;2.10;;;15.80;38.60;;;;;;2235286;26;20319;-68
2024/04/08 03:58:50;;;;;;;7.20;2.07;;;15.70;38.50;;;;;;2217958;26;20367;-68
2024/04/08 03:59:51;;;;;;;4.97;1.67;;;15.80;38.10;;;;;;2201034;26;20314;-68
2024/04/08 04:00:53;;;;;;;3.80;1.53;;;15.80;38.50;;;;;;2205939;26;20263;-68
2024/04/08 04:01:53;;;;;;;9.83;1.73;;;15.80;38.70;;;;;;2192321;26;20272;-68
2024/04/08 04:02:55;;;;;;;5.83;2.23;;;15.80;38.60;;;;;;2206713;26;20497;-68
2024/04/08 04:03:56;;;;;;;8.77;1.90;;;15.60;38.60;;;;;;2211835;26;20262;-68
2024/04/08 04:04:56;;;;;;;6.67;1.97;;;15.60;38.60;;;;;;2197275;26;20495;-68
2024/04/08 04:05:57;;;;;;;5.10;1.57;;;15.60;38.60;;;;;;2207991;26;20270;-68
2024/04/08 04:06:58;;;;;;;5.87;1.30;;;15.60;38.50;;;;;;2208622;26;20267;-68
2024/04/08 04:07:59;;;;;;;9.63;1.63;;;15.60;38.10;;;;;;2203703;26;20268;-68
2024/04/08 04:08:59;;;;;;;4.20;1.43;;;15.60;37.90;;;;;;2202613;26;20768;-68
2024/04/08 04:10:04;;;;;;;2.30;1.10;;;15.60;37.80;;;;;;2192768;26;20306;-68
2024/04/08 04:11:06;;;;;;;3.87;1.47;;;15.70;38.00;;;;;;2174381;26;20292;-68
2024/04/08 04:12:07;;;;;;;6.60;1.90;;;15.60;38.00;;;;;;2190043;26;20832;-68
2024/04/08 04:13:07;;;;;;;5.83;1.30;;;15.60;38.00;;;;;;2215677;26;20512;-68
2024/04/08 04:14:08;;;;;;;4.93;1.50;;;15.50;38.10;;;;;;2230707;26;21047;-68
2024/04/08 04:15:11;;;;;;;3.27;1.70;;;15.50;38.20;;;;;;2234880;26;20337;-69
2024/04/08 04:16:11;;;;;;;3.67;1.37;;;15.50;37.80;;;;;;2217537;26;20285;-68
2024/04/08 04:17:12;;;;;;;6.80;1.53;;;15.50;37.80;;;;;;2216376;26;21023;-69
2024/04/08 04:18:13;;;;;;;7.87;1.60;;;15.50;37.50;;;;;;2188226;26;20322;-68
2024/04/08 04:19:13;;;;;;;5.33;1.53;;;15.60;37.60;;;;;;2190937;26;20235;-68
2024/04/08 04:20:23;;;;;;;4.90;1.47;;;15.50;37.70;;;;;;2218510;26;20268;-68
2024/04/08 04:21:24;;;;;;;5.93;1.57;;;15.60;38.10;;;;;;2201491;26;20813;-68
2024/04/08 04:22:25;;;;;;;6.50;1.73;;;15.50;37.70;;;;;;2202887;26;20498;-68
2024/04/08 04:23:25;;;;;;;3.40;1.33;;;15.50;37.50;;;;;;2207245;26;20271;-68
2024/04/08 04:24:26;;;;;;;5.80;1.70;;;15.50;37.40;;;;;;2206639;26;20270;-68
2024/04/08 04:25:27;;;;;;;5.67;1.77;;;15.40;37.90;;;;;;2203126;26;20341;-68
2024/04/08 04:26:27;;;;;;;7.93;1.57;;;15.40;38.00;;;;;;2214919;26;20292;-68
2024/04/08 04:27:28;;;;;;;6.03;1.67;;;15.40;38.30;;;;;;2219190;26;20269;-68
2024/04/08 04:28:29;;;;;;;5.57;1.40;;;15.40;38.10;;;;;;2220108;26;20316;-68
2024/04/08 04:29:30;;;;;;;6.43;1.60;;;15.30;37.80;;;;;;2232142;26;20277;-68
2024/04/08 04:30:30;;;;;;;3.10;1.43;;;15.30;38.40;;;;;;2213904;26;20270;-68
2024/04/08 04:31:42;;;;;;;9.10;1.80;;;15.30;39.20;;;;;;2237409;26;20669;-68
2024/04/08 04:32:43;;;;;;;9.23;1.53;;;15.30;38.20;;;;;;2219633;26;20265;-68
2024/04/08 04:33:44;;;;;;;5.57;1.40;;;15.30;38.20;;;;;;2207710;26;20561;-68
2024/04/08 04:34:44;;;;;;;5.00;1.67;;;15.20;38.70;;;;;;2231589;26;20262;-67
2024/04/08 04:35:58;;;;;;;7.33;1.53;;;15.20;38.10;;;;;;2230119;26;20752;-67
2024/04/08 04:36:59;;;;;;;4.87;1.27;;;15.20;38.10;;;;;;2232032;26;20408;-67
2024/04/08 04:37:59;;;;;;;7.53;1.30;;;15.20;38.40;;;;;;2232475;26;20832;-67
2024/04/08 04:39:01;;;;;;;3.33;1.53;;;15.20;37.60;;;;;;2216910;26;20267;-67
2024/04/08 04:40:02;;;;;;;7.53;1.40;;;15.20;37.90;;;;;;2220597;26;20281;-67
2024/04/08 04:41:05;;;;;;;4.80;1.60;;;15.20;37.60;;;;;;2207185;26;20995;-66
2024/04/08 04:42:06;;;;;;;6.90;1.60;;;15.20;37.50;;;;;;2205510;26;21519;-66
2024/04/08 04:43:07;;;;;;;6.17;1.50;;;15.30;37.40;;;;;;2204360;26;20457;-67
2024/04/08 04:44:08;;;;;;;5.40;1.73;;;15.30;37.50;;;;;;2230386;26;20455;-67
2024/04/08 04:45:08;;;;;;;8.73;1.60;;;15.30;37.50;;;;;;2230520;26;20272;-67
2024/04/08 04:46:11;;;;;;;6.07;1.83;;;15.40;36.60;;;;;;2224287;26;20279;-67
2024/04/08 04:47:11;;;;;;;5.00;1.70;;;15.40;36.80;;;;;;2220780;26;20245;-67
2024/04/08 04:48:12;;;;;;;6.93;1.60;;;15.40;36.70;;;;;;2203605;26;20450;-67
2024/04/08 04:49:13;;;;;;;10.50;1.73;;;15.40;37.20;;;;;;2201934;26;20762;-67
2024/04/08 04:50:13;;;;;;;5.70;1.63;;;15.40;36.80;;;;;;2228433;26;20241;-67
2024/04/08 04:51:14;;;;;;;5.77;1.67;;;15.40;36.80;;;;;;2228404;26;20242;-67
2024/04/08 04:52:15;;;;;;;6.97;1.70;;;15.50;36.50;;;;;;2215907;26;20283;-67
2024/04/08 04:53:15;;;;;;;9.47;1.80;;;15.50;36.30;;;;;;2236410;26;20594;-66
2024/04/08 04:54:16;;;;;;;8.03;1.77;;;15.50;36.30;;;;;;2224357;26;20238;-66
2024/04/08 04:55:16;;;;;;;7.83;1.70;;;15.50;36.50;;;;;;2201239;26;20236;-67
2024/04/08 04:56:17;;;;;;;4.40;1.67;;;15.50;36.70;;;;;;2222059;26;20734;-67
2024/04/08 04:57:18;;;;;;;5.23;1.57;;;15.60;36.70;;;;;;2217764;26;20238;-67
2024/04/08 04:58:19;;;;;;;6.23;1.83;;;15.60;36.30;;;;;;2201265;26;20238;-67
2024/04/08 04:59:21;;;;;;;5.93;1.37;;;15.60;36.40;;;;;;2192461;26;20361;-67
2024/04/08 05:00:25;;;;;;;8.30;1.40;;;15.60;36.20;;;;;;2193494;26;21058;-67
2024/04/08 05:01:26;;;;;;;4.60;1.23;;;15.60;36.20;;;;;;2207368;26;20506;-67
2024/04/08 05:02:27;;;;;;;5.60;1.33;;;15.60;36.30;;;;;;2191616;26;20507;-67
2024/04/08 05:03:28;;;;;;;3.40;1.50;;;15.60;36.20;;;;;;2204025;26;20501;-67
2024/04/08 05:04:28;;;;;;;6.47;1.93;;;15.60;36.60;;;;;;2205923;26;20322;-67
2024/04/08 05:05:29;;;;;;;4.30;1.40;;;15.60;36.00;;;;;;2231979;26;20869;-67
2024/04/08 05:06:30;;;;;;;7.03;1.60;;;15.70;35.40;;;;;;2215983;26;20312;-67
2024/04/08 05:07:31;;;;;;;6.33;1.20;;;15.60;35.50;;;;;;2218362;26;20571;-67
2024/04/08 05:08:32;;;;;;;5.83;1.43;;;15.60;35.60;;;;;;2235171;26;20311;-67
2024/04/08 05:09:32;;;;;;;8.30;1.87;;;15.80;35.80;;;;;;2204017;26;20271;-67
2024/04/08 05:10:33;;;;;;;4.73;1.70;;;15.80;35.50;;;;;;2202631;26;20622;-67
2024/04/08 05:11:34;;;;;;;7.63;1.60;;;15.90;35.80;;;;;;2201865;26;20309;-68
2024/04/08 05:12:34;;;;;;;4.53;1.77;;;15.80;35.90;;;;;;2207063;26;20627;-67
2024/04/08 05:13:35;;;;;;;4.37;1.53;;;15.80;36.10;;;;;;2205396;26;20419;-67
2024/04/08 05:14:36;;;;;;;7.03;1.77;;;15.80;35.70;;;;;;2203577;26;20267;-67
2024/04/08 05:15:37;;;;;;;4.17;1.70;;;15.90;36.10;;;;;;2230223;26;20592;-67
2024/04/08 05:16:37;;;;;;;6.17;1.40;;;15.80;35.80;;;;;;2233781;26;20269;-68